Time;durP1;ratioP1;P1;durP2;ratioP2;P2;SDS_P1;SDS_P2;PMS_P1;PMS_P2;Temp;Humidity;BMP_temperature;BMP_pressure;BME280_temperature;BME280_humidity;BME280_pressure;Samples;Min_cycle;Max_cycle;Signal;HPM_P1;HPM_P2
2023/05/21 00:01:47;;;;;;;;;;;;;;;13.00;100.00;101808.38;5020183;28;19928;-72
2023/05/21 00:04:14;;;;;;;;;;;;;;;13.00;100.00;101811.91;5023871;28;19927;-73
2023/05/21 00:06:39;;;;;;;;;;;;;;;12.92;100.00;101811.63;5025282;28;19921;-73
2023/05/21 00:09:05;;;;;;;;;;;;;;;12.88;100.00;101812.81;5027115;28;19928;-73
2023/05/21 00:11:30;;;;;;;;;;;;;;;12.80;100.00;101813.38;5049970;28;19921;-73
2023/05/21 00:13:55;;;;;;;;;;;;;;;12.69;100.00;101802.50;5030329;28;19931;-73
2023/05/21 00:16:21;;;;;;;;;;;;;;;12.64;100.00;101807.34;5030183;28;19984;-73
2023/05/21 00:18:48;;;;;;;;;;;;;;;12.58;100.00;101808.66;5032484;28;19943;-73
2023/05/21 00:21:16;;;;;;;;;;;;;;;12.59;100.00;101799.59;5034372;28;20303;-73
2023/05/21 00:23:41;;;;;;;;;;;;;;;12.56;100.00;101798.00;5032857;28;19924;-73
2023/05/21 00:26:06;;;;;;;;;;;;;;;12.64;100.00;101791.19;5047334;28;19952;-73
2023/05/21 00:28:31;;;;;;;;;;;;;;;12.64;100.00;101786.66;5030616;28;19960;-73
2023/05/21 00:30:57;;;;;;;;;;;;;;;12.65;100.00;101788.38;5034878;28;20027;-73
2023/05/21 00:33:25;;;;;;;;;;;;;;;12.65;100.00;101785.69;5032139;28;20043;-73
2023/05/21 00:35:50;;;;;;;;;;;;;;;12.67;100.00;101780.19;5033383;28;20024;-73
2023/05/21 00:38:16;;;;;;;;;;;;;;;12.68;100.00;101782.78;5031123;28;19943;-73
2023/05/21 00:40:41;;;;;;;;;;;;;;;12.64;100.00;101785.78;5032823;28;19992;-73
2023/05/21 00:43:09;;;;;;;;;;;;;;;12.60;100.00;101777.06;5028196;28;20287;-73
2023/05/21 00:45:35;;;;;;;;;;;;;;;12.57;100.00;101780.88;5030501;28;19925;-72
2023/05/21 00:48:01;;;;;;;;;;;;;;;12.57;100.00;101782.69;5028475;28;20012;-73
2023/05/21 00:50:26;;;;;;;;;;;;;;;12.53;100.00;101773.97;5048096;28;19925;-73
2023/05/21 00:52:52;;;;;;;;;;;;;;;12.51;100.00;101773.22;5028178;28;20350;-73
2023/05/21 00:55:17;;;;;;;;;;;;;;;12.48;100.00;101770.75;5029982;28;20332;-73
2023/05/21 00:57:42;;;;;;;;;;;;;;;12.49;100.00;101774.28;5030837;28;19928;-73
2023/05/21 01:00:09;;;;;;;;;;;;;;;12.44;100.00;101772.78;5047456;28;19926;-73
2023/05/21 01:02:35;;;;;;;;;;;;;;;12.49;100.00;101768.88;5029775;28;19925;-73
2023/05/21 01:05:03;;;;;;;;;;;;;;;12.44;100.00;101763.84;5031227;28;20035;-73
2023/05/21 01:07:28;;;;;;;;;;;;;;;12.41;100.00;101764.94;5047262;28;19929;-73
2023/05/21 01:09:53;;;;;;;;;;;;;;;12.41;100.00;101764.06;5028655;28;20651;-72
2023/05/21 01:12:19;;;;;;;;;;;;;;;12.32;100.00;101765.56;5029096;28;19951;-73
2023/05/21 01:14:44;;;;;;;;;;;;;;;12.29;100.00;101771.16;5029027;28;19968;-73
2023/05/21 01:17:09;;;;;;;;;;;;;;;12.32;100.00;101768.25;5029269;28;19931;-73
2023/05/21 01:19:34;;;;;;;;;;;;;;;12.29;100.00;101766.66;5024640;28;19928;-73
2023/05/21 01:22:03;;;;;;;;;;;;;;;12.23;100.00;101750.94;5026593;28;20322;-73
2023/05/21 01:24:28;;;;;;;;;;;;;;;12.34;100.00;101768.13;5031088;28;19951;-73
2023/05/21 01:26:53;;;;;;;;;;;;;;;12.41;100.00;101764.94;5046644;28;20613;-73
2023/05/21 01:29:18;;;;;;;;;;;;;;;12.40;100.00;101771.28;5025116;28;20317;-73
2023/05/21 01:31:47;;;;;;;;;;;;;;;12.43;100.00;101762.13;5029657;28;20280;-74
2023/05/21 01:34:12;;;;;;;;;;;;;;;12.51;100.00;101765.13;5022820;28;20354;-73
2023/05/21 01:36:41;;;;;;;;;;;;;;;12.59;100.00;101761.88;5030626;28;20519;-73
2023/05/21 01:39:13;;;;;;;;;;;;;;;12.55;100.00;101749.59;5032164;28;20510;-73
2023/05/21 01:41:39;;;;;;;;;;;;;;;12.70;100.00;101753.91;5028358;28;20314;-73
2023/05/21 01:44:04;;;;;;;;;;;;;;;12.74;100.00;101759.91;5029905;28;20003;-74
2023/05/21 01:46:31;;;;;;;;;;;;;;;12.90;100.00;101746.19;5032220;28;19931;-73
2023/05/21 01:48:56;;;;;;;;;;;;;;;12.91;100.00;101737.13;5026016;28;19921;-73
2023/05/21 01:51:21;;;;;;;;;;;;;;;13.11;100.00;101748.25;5030656;28;20091;-73
2023/05/21 01:53:46;;;;;;;;;;;;;;;13.14;100.00;101743.50;5036396;28;19970;-73
2023/05/21 01:56:12;;;;;;;;;;;;;;;13.17;100.00;101745.97;5034133;28;19921;-73
2023/05/21 01:58:37;;;;;;;;;;;;;;;13.18;100.00;101752.25;5028137;28;19928;-73
2023/05/21 02:01:03;;;;;;;;;;;;;;;13.18;100.00;101750.38;5033641;28;20311;-73
2023/05/21 02:03:31;;;;;;;;;;;;;;;13.19;100.00;101744.03;5033647;28;20342;-73
2023/05/21 02:05:57;;;;;;;;;;;;;;;13.26;100.00;101743.56;5034755;28;19920;-74
2023/05/21 02:08:22;;;;;;;;;;;;;;;13.29;100.00;101743.34;5034537;28;19920;-74
2023/05/21 02:10:47;;;;;;;;;;;;;;;13.36;100.00;101741.91;5034185;28;20411;-73
2023/05/21 02:13:13;;;;;;;;;;;;;;;13.37;100.00;101740.94;5031939;28;20491;-73
2023/05/21 02:15:39;;;;;;;;;;;;;;;13.36;100.00;101744.59;5053521;28;19939;-74
2023/05/21 02:18:04;;;;;;;;;;;;;;;13.43;100.00;101745.03;5033945;28;20378;-73
2023/05/21 02:20:29;;;;;;;;;;;;;;;13.53;100.00;101745.19;5034560;28;19927;-73
2023/05/21 02:22:55;;;;;;;;;;;;;;;13.53;100.00;101742.50;5030973;28;20277;-73
2023/05/21 02:25:20;;;;;;;;;;;;;;;13.49;100.00;101731.94;5038995;28;20079;-73
2023/05/21 02:27:52;;;;;;;;;;;;;;;13.47;100.00;101736.56;5033457;28;19968;-73
2023/05/21 02:30:18;;;;;;;;;;;;;;;13.43;100.00;101739.63;5032302;28;20400;-73
2023/05/21 02:32:43;;;;;;;;;;;;;;;13.41;100.00;101738.88;5034501;28;19925;-73
2023/05/21 02:35:10;;;;;;;;;;;;;;;13.37;100.00;101737.38;5033371;28;20497;-73
2023/05/21 02:37:35;;;;;;;;;;;;;;;13.44;100.00;101741.34;5032728;28;19920;-73
2023/05/21 02:40:01;;;;;;;;;;;;;;;13.46;100.00;101742.09;5031493;28;19928;-73
2023/05/21 02:42:26;;;;;;;;;;;;;;;13.45;100.00;101740.38;5034524;28;20399;-73
2023/05/21 02:44:51;;;;;;;;;;;;;;;13.54;100.00;101738.81;5033009;28;19920;-73
2023/05/21 02:47:17;;;;;;;;;;;;;;;13.36;100.00;101723.03;5032481;28;19931;-74
2023/05/21 02:49:42;;;;;;;;;;;;;;;13.53;100.00;101737.09;5031105;28;19924;-73
2023/05/21 02:52:07;;;;;;;;;;;;;;;13.56;100.00;101739.56;5036195;28;20401;-73
2023/05/21 02:54:33;;;;;;;;;;;;;;;13.60;100.00;101732.97;5031197;28;20454;-73
2023/05/21 02:56:58;;;;;;;;;;;;;;;13.55;100.00;101730.59;5032562;28;19920;-73
2023/05/21 02:59:23;;;;;;;;;;;;;;;13.54;100.00;101728.88;5032133;28;20278;-73
2023/05/21 03:01:48;;;;;;;;;;;;;;;13.56;100.00;101737.72;5031342;28;19974;-73
2023/05/21 03:04:16;;;;;;;;;;;;;;;13.53;100.00;101723.59;5032332;28;19921;-73
2023/05/21 03:06:41;;;;;;;;;;;;;;;13.56;100.00;101723.38;5032070;28;20443;-73
2023/05/21 03:09:06;;;;;;;;;;;;;;;13.48;100.00;101727.50;5044967;28;19970;-73
2023/05/21 03:11:31;;;;;;;;;;;;;;;13.46;100.00;101729.47;5038733;28;19928;-73
2023/05/21 03:13:56;;;;;;;;;;;;;;;13.53;100.00;101723.59;5024033;28;19960;-72
2023/05/21 03:16:22;;;;;;;;;;;;;;;13.48;100.00;101719.41;5029530;28;19967;-73
2023/05/21 03:18:47;;;;;;;;;;;;;;;13.34;100.00;101717.72;5044128;28;19931;-73
2023/05/21 03:21:14;;;;;;;;;;;;;;;13.33;100.00;101715.16;5028834;28;19928;-73
2023/05/21 03:23:40;;;;;;;;;;;;;;;13.34;100.00;101719.59;5044400;28;19948;-73
2023/05/21 03:26:05;;;;;;;;;;;;;;;13.28;100.00;101710.09;5026186;28;19921;-73
2023/05/21 03:28:31;;;;;;;;;;;;;;;13.28;100.00;101710.09;5027313;28;20430;-73
2023/05/21 03:30:56;;;;;;;;;;;;;;;13.25;100.00;101706.78;5042910;28;19968;-73
2023/05/21 03:33:21;;;;;;;;;;;;;;;13.20;100.00;101707.16;5039303;28;20047;-73
2023/05/21 03:35:46;;;;;;;;;;;;;;;13.18;100.00;101707.25;5028402;28;19986;-73
2023/05/21 03:38:12;;;;;;;;;;;;;;;13.14;100.00;101696.81;5029288;28;20503;-73
2023/05/21 03:40:37;;;;;;;;;;;;;;;13.19;100.00;101700.88;5028998;28;20287;-73
2023/05/21 03:43:02;;;;;;;;;;;;;;;13.11;100.00;101700.59;5023223;28;20018;-74
2023/05/21 03:45:27;;;;;;;;;;;;;;;13.07;100.00;101701.81;5031261;28;20380;-74
2023/05/21 03:47:53;;;;;;;;;;;;;;;13.00;100.00;101709.47;5025598;28;20289;-74
2023/05/21 03:50:18;;;;;;;;;;;;;;;12.93;100.00;101715.44;5043954;28;20363;-73
2023/05/21 03:52:43;;;;;;;;;;;;;;;12.90;100.00;101716.53;5030097;28;19966;-73
2023/05/21 03:55:08;;;;;;;;;;;;;;;12.96;100.00;101715.22;5048219;28;19928;-73
2023/05/21 03:57:33;;;;;;;;;;;;;;;12.93;100.00;101712.75;5028381;28;19920;-74
2023/05/21 03:59:59;;;;;;;;;;;;;;;12.90;100.00;101716.53;5047645;28;19925;-73
2023/05/21 04:02:25;;;;;;;;;;;;;;;12.90;100.00;101725.47;5028609;28;20350;-74
2023/05/21 04:04:52;;;;;;;;;;;;;;;12.84;100.00;101709.78;5041125;28;19952;-73
2023/05/21 04:07:18;;;;;;;;;;;;;;;12.74;100.00;101697.94;5026577;28;20072;-73
2023/05/21 04:09:43;;;;;;;;;;;;;;;12.79;100.00;101719.16;5048522;28;19925;-73
2023/05/21 04:12:08;;;;;;;;;;;;;;;12.77;100.00;101718.41;5032967;28;20377;-73
2023/05/21 04:14:34;;;;;;;;;;;;;;;12.78;100.00;101722.81;5036519;28;19940;-73
2023/05/21 04:16:59;;;;;;;;;;;;;;;12.79;100.00;101722.72;5038859;28;19916;-73
2023/05/21 04:19:24;;;;;;;;;;;;;;;12.78;100.00;101726.38;5038340;28;19921;-73
2023/05/21 04:21:49;;;;;;;;;;;;;;;12.76;100.00;101725.63;5037272;28;19955;-73
2023/05/21 04:24:15;;;;;;;;;;;;;;;12.73;100.00;101724.00;5036815;28;20012;-73
2023/05/21 04:26:41;;;;;;;;;;;;;;;12.75;100.00;101724.75;5036426;28;20474;-73
2023/05/21 04:29:06;;;;;;;;;;;;;;;12.68;100.00;101714.56;5020701;28;19921;-73
2023/05/21 04:31:32;;;;;;;;;;;;;;;12.72;100.00;101734.91;5035888;28;19920;-73
2023/05/21 04:33:58;;;;;;;;;;;;;;;12.70;100.00;101726.97;5030375;28;20377;-73
2023/05/21 04:36:23;;;;;;;;;;;;;;;12.73;100.00;101732.09;5039611;28;19924;-73
2023/05/21 04:38:48;;;;;;;;;;;;;;;12.71;100.00;101725.97;5030633;28;19964;-74
2023/05/21 04:41:13;;;;;;;;;;;;;;;12.70;100.00;101726.09;5026360;28;19921;-73
2023/05/21 04:43:42;;;;;;;;;;;;;;;12.70;100.00;101731.47;5028037;28;19929;-73
2023/05/21 04:46:08;;;;;;;;;;;;;;;12.73;100.00;101725.88;5024339;28;20323;-73
2023/05/21 04:48:33;;;;;;;;;;;;;;;12.76;100.00;101728.34;5042919;28;20353;-74
2023/05/21 04:50:58;;;;;;;;;;;;;;;12.78;100.00;101725.50;5028879;28;19947;-74
2023/05/21 04:53:24;;;;;;;;;;;;;;;12.79;100.00;101729.94;5045939;28;19968;-73
2023/05/21 04:55:49;;;;;;;;;;;;;;;12.87;100.00;101731.09;5023595;28;20494;-73
2023/05/21 04:58:17;;;;;;;;;;;;;;;12.97;100.00;101733.13;5038706;28;20254;-74
2023/05/21 05:00:44;;;;;;;;;;;;;;;13.00;100.00;101739.13;5024432;28;20454;-73
2023/05/21 05:03:10;;;;;;;;;;;;;;;13.02;100.00;101730.94;5037936;28;19927;-74
2023/05/21 05:05:35;;;;;;;;;;;;;;;13.18;100.00;101730.66;5027426;28;20239;-73
2023/05/21 05:08:01;;;;;;;;;;;;;;;13.27;100.00;101732.66;5027864;28;19975;-73
2023/05/21 05:10:26;;;;;;;;;;;;;;;13.32;100.00;101732.31;5028020;28;19958;-73
2023/05/21 05:12:51;;;;;;;;;;;;;;;13.39;100.00;101732.72;5026794;28;20437;-73
2023/05/21 05:15:16;;;;;;;;;;;;;;;13.43;100.00;101727.00;5043278;28;19929;-74
2023/05/21 05:17:42;;;;;;;;;;;;;;;13.46;100.00;101728.63;5027468;28;20386;-74
2023/05/21 05:20:08;;;;;;;;;;;;;;;13.48;100.00;101726.66;5025795;28;20406;-75
2023/05/21 05:22:33;;;;;;;;;;;;;;;13.60;100.00;101724.88;5027366;28;20694;-74
2023/05/21 05:25:00;;;;;;;;;;;;;;;13.59;100.00;101721.28;5028419;28;20297;-74
2023/05/21 05:27:25;;;;;;;;;;;;;;;13.67;100.00;101723.38;5033024;28;19921;-73
2023/05/21 05:29:50;;;;;;;;;;;;;;;13.66;100.00;101718.97;5030365;28;19952;-73
2023/05/21 05:32:16;;;;;;;;;;;;;;;13.77;100.00;101715.47;5024905;28;19983;-73
2023/05/21 05:34:41;;;;;;;;;;;;;;;13.82;100.00;101717.81;5044536;28;19931;-74
2023/05/21 05:37:06;;;;;;;;;;;;;;;13.83;100.00;101714.97;5028626;28;19968;-73
2023/05/21 05:39:32;;;;;;;;;;;;;;;13.95;100.00;101721.25;5025297;28;19927;-74
2023/05/21 05:41:57;;;;;;;;;;;;;;;13.97;100.00;101723.84;5023766;28;20092;-75
2023/05/21 05:44:22;;;;;;;;;;;;;;;14.08;100.00;101713.03;5024908;28;20008;-74
2023/05/21 05:46:47;;;;;;;;;;;;;;;14.24;100.00;101712.69;5027286;28;19921;-72
2023/05/21 05:49:12;;;;;;;;;;;;;;;14.27;100.00;101717.00;5040579;28;19932;-72
2023/05/21 05:51:38;;;;;;;;;;;;;;;14.30;100.00;101720.31;5027203;28;19920;-73
2023/05/21 05:54:03;;;;;;;;;;;;;;;14.38;100.00;101714.28;5027109;28;19933;-72
2023/05/21 05:56:28;;;;;;;;;;;;;;;14.43;100.00;101708.53;5023542;28;19932;-71
2023/05/21 05:58:53;;;;;;;;;;;;;;;14.47;100.00;101708.16;5022123;28;20067;-73
2023/05/21 06:01:21;;;;;;;;;;;;;;;14.56;100.00;101706.53;5028537;28;19932;-72
2023/05/21 06:03:46;;;;;;;;;;;;;;;14.63;100.00;101715.88;5027901;28;19921;-74
2023/05/21 06:06:11;;;;;;;;;;;;;;;14.65;100.00;101716.63;5050869;28;20221;-73
2023/05/21 06:08:37;;;;;;;;;;;;;;;14.74;100.00;101724.97;5032093;28;19920;-72
2023/05/21 06:11:02;;;;;;;;;;;;;;;14.80;100.00;101714.53;5025318;28;19948;-72
2023/05/21 06:13:27;;;;;;;;;;;;;;;14.82;100.00;101717.97;5026671;28;19917;-73
2023/05/21 06:15:52;;;;;;;;;;;;;;;14.98;100.00;101728.34;5018823;28;19959;-73
2023/05/21 06:18:18;;;;;;;;;;;;;;;15.13;100.00;101730.78;5035439;28;20682;-74
2023/05/21 06:20:43;;;;;;;;;;;;;;;15.23;100.00;101725.47;5039881;28;19925;-74
2023/05/21 06:23:08;;;;;;;;;;;;;;;15.37;100.00;101717.03;5035556;28;19921;-71
2023/05/21 06:25:33;;;;;;;;;;;;;;;15.32;100.00;101718.44;5041964;28;19999;-74
2023/05/21 06:27:59;;;;;;;;;;;;;;;15.34;100.00;101725.44;5031820;28;19939;-74
2023/05/21 06:30:24;;;;;;;;;;;;;;;15.42;100.00;101722.94;5035138;28;20366;-72
2023/05/21 06:32:49;;;;;;;;;;;;;;;15.57;100.00;101728.88;5023811;28;20016;-73
2023/05/21 06:35:15;;;;;;;;;;;;;;;15.57;100.00;101726.19;5039283;28;20043;-74
2023/05/21 06:37:40;;;;;;;;;;;;;;;15.54;100.00;101717.47;5033499;28;19921;-72
2023/05/21 06:40:08;;;;;;;;;;;;;;;15.60;100.00;101728.63;5046895;28;20369;-73
2023/05/21 06:42:33;;;;;;;;;;;;;;;15.71;100.00;101725.00;5025814;28;19921;-74
2023/05/21 06:44:58;;;;;;;;;;;;;;;15.89;100.00;101716.34;5026404;28;20013;-72
2023/05/21 06:47:23;;;;;;;;;;;;;;;16.00;100.00;101721.66;5045553;28;19925;-73
2023/05/21 06:49:49;;;;;;;;;;;;;;;15.95;100.00;101718.47;5028273;28;19921;-73
2023/05/21 06:52:14;;;;;;;;;;;;;;;16.20;100.00;101710.91;5044894;28;20171;-72
2023/05/21 06:54:39;;;;;;;;;;;;;;;16.26;100.00;101707.66;5029641;28;19975;-71
2023/05/21 06:57:05;;;;;;;;;;;;;;;16.40;100.00;101711.03;5026262;28;19963;-74
2023/05/21 06:59:30;;;;;;;;;;;;;;;16.28;100.00;101702.97;5026915;28;19927;-72
2023/05/21 07:01:55;;;;;;;;;;;;;;;16.31;100.00;101702.72;5041761;28;19951;-73
2023/05/21 07:04:20;;;;;;;;;;;;;;;16.48;100.00;101701.22;5042243;28;20019;-74
2023/05/21 07:06:47;;;;;;;;;;;;;;;16.43;100.00;101699.88;5029164;28;19925;-74
2023/05/21 07:09:12;;;;;;;;;;;;;;;16.59;100.00;101696.66;5031732;28;19920;-72
2023/05/21 07:11:38;;;;;;;;;;;;;;;16.70;100.00;101701.97;5024213;28;19947;-72
2023/05/21 07:14:03;;;;;;;;;;;;;;;16.73;100.00;101693.56;5044601;28;19925;-73
2023/05/21 07:16:28;;;;;;;;;;;;;;;16.77;100.00;101703.13;5032815;28;20389;-71
2023/05/21 07:18:53;;;;;;;;;;;;;;;16.63;100.00;101695.38;5044732;28;19978;-72
2023/05/21 07:21:19;;;;;;;;;;;;;;;16.72;100.00;101691.84;5031270;28;19924;-73
2023/05/21 07:23:44;;;;;;;;;;;;;;;17.00;100.00;101688.50;5029861;28;20690;-74
2023/05/21 07:26:09;;;;;;;;;;;;;;;16.90;100.00;101691.16;5045682;28;19921;-74
2023/05/21 07:28:35;;;;;;;;;;;;;;;16.91;100.00;101684.75;5028666;28;20446;-73
2023/05/21 07:31:00;;;;;;;;;;;;;;;17.08;100.00;101684.06;5028629;28;19921;-73
2023/05/21 07:33:25;;;;;;;;;;;;;;;17.22;100.00;101679.22;5025233;28;19921;-72
2023/05/21 07:35:51;;;;;;;;;;;;;;;17.19;100.00;101682.22;5029646;28;19925;-72
2023/05/21 07:38:16;;;;;;;;;;;;;;;17.36;100.00;101676.06;5030477;28;19921;-73
2023/05/21 07:40:41;;;;;;;;;;;;;;;17.58;100.00;101690.34;5026347;28;19964;-73
2023/05/21 07:43:06;;;;;;;;;;;;;;;17.56;100.00;101686.06;5025344;28;19920;-74
2023/05/21 07:45:32;;;;;;;;;;;;;;;17.87;100.00;101683.13;5033938;28;19942;-72
2023/05/21 07:47:57;;;;;;;;;;;;;;;18.02;100.00;101686.28;5026128;28;20442;-71
2023/05/21 07:50:22;;;;;;;;;;;;;;;18.07;100.00;101683.97;5031237;28;19975;-72
2023/05/21 07:52:47;;;;;;;;;;;;;;;18.13;100.00;101681.50;5032304;28;19925;-74
2023/05/21 07:55:13;;;;;;;;;;;;;;;18.19;100.00;101681.94;5028399;28;19960;-73
2023/05/21 07:57:38;;;;;;;;;;;;;;;18.16;100.00;101672.19;5009717;28;19924;-72
2023/05/21 08:00:07;;;;;;;;;;;;;;;18.36;100.00;101683.00;5042526;28;19928;-72
2023/05/21 08:02:32;;;;;;;;;;;;;;;18.49;100.00;101682.66;5036062;28;19956;-72
2023/05/21 08:04:57;;;;;;;;;;;;;;;18.58;100.00;101677.16;5028857;28;20016;-70
2023/05/21 08:07:22;;;;;;;;;;;;;;;18.70;100.00;101676.94;5030043;28;19927;-71
2023/05/21 08:09:48;;;;;;;;;;;;;;;18.67;100.00;101677.25;5030768;28;19968;-72
2023/05/21 08:12:14;;;;;;;;;;;;;;;18.47;96.59;101673.78;5024045;28;20047;-72
2023/05/21 08:14:40;;;;;;;;;;;;;;;18.79;100.00;101675.19;5028661;28;19929;-71
2023/05/21 08:17:05;;;;;;;;;;;;;;;18.74;100.00;101678.34;5028572;28;20406;-72
2023/05/21 08:19:31;;;;;;;;;;;;;;;18.75;96.85;101680.06;5032966;28;20139;-71
2023/05/21 08:21:56;;;;;;;;;;;;;;;18.85;99.35;101688.13;5026295;28;20154;-71
2023/05/21 08:24:22;;;;;;;;;;;;;;;19.11;94.43;101681.97;5026935;28;19921;-72
2023/05/21 08:26:49;;;;;;;;;;;;;;;19.14;97.92;101679.81;5023478;28;19952;-74
2023/05/21 08:29:14;;;;;;;;;;;;;;;19.21;94.08;101679.16;5042676;28;20305;-72
2023/05/21 08:31:40;;;;;;;;;;;;;;;19.03;95.32;101677.31;5029900;28;19921;-71
2023/05/21 08:34:05;;;;;;;;;;;;;;;19.15;97.62;101673.34;5023110;28;19960;-72
2023/05/21 08:36:30;;;;;;;;;;;;;;;19.43;98.64;101673.25;5031286;28;20267;-71
2023/05/21 08:38:55;;;;;;;;;;;;;;;19.39;93.80;101671.00;5031067;28;20382;-71
2023/05/21 08:41:22;;;;;;;;;;;;;;;19.63;99.87;101667.63;5032876;28;20461;-72
2023/05/21 08:43:47;;;;;;;;;;;;;;;19.66;93.92;101660.97;5028804;28;19932;-73
2023/05/21 08:46:12;;;;;;;;;;;;;;;19.76;96.37;101661.75;5026879;28;20317;-72
2023/05/21 08:48:38;;;;;;;;;;;;;;;19.77;97.16;101666.16;5041465;28;19927;-73
2023/05/21 08:51:03;;;;;;;;;;;;;;;19.76;95.07;101664.47;5030023;28;19963;-72
2023/05/21 08:53:28;;;;;;;;;;;;;;;20.03;95.21;101665.34;5029564;28;19928;-72
2023/05/21 08:55:57;;;;;;;;;;;;;;;20.14;94.04;101654.13;5048174;28;19931;-71
2023/05/21 08:58:22;;;;;;;;;;;;;;;20.30;91.90;101668.88;5024013;28;20321;-71
2023/05/21 09:00:47;;;;;;;;;;;;;;;20.48;94.45;101666.06;5033123;28;19936;-71
2023/05/21 09:03:13;;;;;;;;;;;;;;;20.58;88.00;101660.44;5026568;28;20662;-71
2023/05/21 09:05:42;;;;;;;;;;;;;;;20.70;85.62;101659.09;5027807;28;20394;-70
2023/05/21 09:08:17;;;;;;;;;;;;;;;20.87;86.40;101645.53;5031705;28;19995;-71
2023/05/21 09:10:49;;;;;;;;;;;;;;;20.93;85.65;101645.72;5028107;28;19963;-71
2023/05/21 09:13:18;;;;;;;;;;;;;;;20.94;85.89;101639.25;5030162;28;20528;-73
2023/05/21 09:15:43;;;;;;;;;;;;;;;21.14;88.10;101641.63;5036233;28;19932;-71
2023/05/21 09:18:08;;;;;;;;;;;;;;;21.25;83.74;101641.31;5029760;28;19921;-71
2023/05/21 09:20:34;;;;;;;;;;;;;;;21.33;82.26;101643.19;5030499;28;19971;-74
2023/05/21 09:23:01;;;;;;;;;;;;;;;21.42;88.06;101646.75;5033511;28;20243;-73
2023/05/21 09:25:27;;;;;;;;;;;;;;;21.75;82.77;101637.69;5032280;28;19990;-72
2023/05/21 09:27:52;;;;;;;;;;;;;;;21.96;83.37;101632.53;5031353;28;19924;-71
2023/05/21 09:30:18;;;;;;;;;;;;;;;21.95;82.16;101638.13;5029152;28;19924;-71
2023/05/21 09:32:43;;;;;;;;;;;;;;;21.78;77.86;101632.72;5021850;28;19931;-72
2023/05/21 09:35:09;;;;;;;;;;;;;;;22.18;82.42;101630.03;5032730;28;19925;-70
2023/05/21 09:37:42;;;;;;;;;;;;;;;22.39;83.39;101634.88;5035729;28;19929;-72
2023/05/21 09:40:18;;;;;;;;;;;;;;;22.62;78.28;101640.44;5033480;28;19925;-73
2023/05/21 09:42:47;;;;;;;;;;;;;;;22.41;75.75;101629.25;5008343;28;19936;-71
2023/05/21 09:45:16;;;;;;;;;;;;;;;22.47;80.14;101626.66;5029240;28;20554;-71
2023/05/21 09:47:42;;;;;;;;;;;;;;;22.66;75.79;101627.22;5030237;28;20464;-71
2023/05/21 09:50:08;;;;;;;;;;;;;;;22.85;72.10;101630.56;5025381;28;19921;-72
2023/05/21 09:52:35;;;;;;;;;;;;;;;22.57;74.19;101623.69;5027624;28;20082;-74
2023/05/21 09:55:00;;;;;;;;;;;;;;;22.04;76.09;101628.91;5038419;28;19933;-71
2023/05/21 09:57:25;;;;;;;;;;;;;;;22.17;77.75;101628.34;5025191;28;20425;-73
2023/05/21 09:59:51;;;;;;;;;;;;;;;22.31;75.00;101637.69;5030827;28;19976;-75
2023/05/21 10:02:17;;;;;;;;;;;;;;;22.62;72.55;101639.59;5027056;28;20085;-73
2023/05/21 10:04:42;;;;;;;;;;;;;;;22.14;75.79;101635.00;5027380;28;19921;-73
2023/05/21 10:07:08;;;;;;;;;;;;;;;22.22;75.01;101628.66;5011627;28;20222;-72
2023/05/21 10:09:33;;;;;;;;;;;;;;;22.42;77.22;101626.31;5030354;28;19925;-72
2023/05/21 10:11:58;;;;;;;;;;;;;;;22.49;76.22;101628.38;5032408;28;19920;-70
2023/05/21 10:14:24;;;;;;;;;;;;;;;22.62;72.90;101629.50;5032088;28;19921;-71
2023/05/21 10:16:50;;;;;;;;;;;;;;;22.87;74.44;101628.50;5032457;28;19968;-69
2023/05/21 10:19:15;;;;;;;;;;;;;;;22.80;74.42;101624.75;5034638;28;20012;-71
2023/05/21 10:21:40;;;;;;;;;;;;;;;22.94;76.11;101623.13;5037642;28;20286;-72
2023/05/21 10:24:06;;;;;;;;;;;;;;;23.28;73.67;101627.34;5030124;28;19921;-70
2023/05/21 10:26:31;;;;;;;;;;;;;;;23.20;70.93;101618.13;5033887;28;19928;-73
2023/05/21 10:28:58;;;;;;;;;;;;;;;22.53;71.58;101622.34;5031134;28;19921;-70
2023/05/21 10:31:24;;;;;;;;;;;;;;;22.36;70.59;101624.31;5050561;28;19921;-70
2023/05/21 10:33:51;;;;;;;;;;;;;;;23.02;72.23;101623.91;5028125;28;19928;-71
2023/05/21 10:36:17;;;;;;;;;;;;;;;23.38;71.79;101618.84;5028254;28;19963;-71
2023/05/21 10:38:42;;;;;;;;;;;;;;;23.58;69.77;101625.50;5032267;28;19935;-76
2023/05/21 10:41:08;;;;;;;;;;;;;;;24.22;68.26;101620.50;5030375;28;19947;-70
2023/05/21 10:43:52;;;;;;;;;;;;;;;24.36;65.40;101616.91;5032786;28;20355;-71
2023/05/21 10:46:30;;;;;;;;;;;;;;;24.01;68.32;101613.91;5031345;28;19920;-73
2023/05/21 10:49:15;;;;;;;;;;;;;;;24.39;68.97;101610.16;5032077;28;20311;-71
2023/05/21 10:52:00;;;;;;;;;;;;;;;24.95;64.03;101608.69;5038006;28;20042;-70
2023/05/21 10:54:45;;;;;;;;;;;;;;;25.24;66.35;101609.56;5003418;28;19959;-68
2023/05/21 10:57:16;;;;;;;;;;;;;;;25.38;62.63;101600.38;5028864;28;20426;-73
2023/05/21 10:59:41;;;;;;;;;;;;;;;25.41;63.10;101599.97;5032181;28;19921;-71
2023/05/21 11:02:06;;;;;;;;;;;;;;;25.74;59.42;101588.38;5047439;28;19944;-71
2023/05/21 11:04:33;;;;;;;;;;;;;;;26.05;58.81;101588.94;5035242;28;20103;-70
2023/05/21 11:06:58;;;;;;;;;;;;;;;25.64;61.42;101595.28;5032102;28;20410;-73
2023/05/21 11:09:24;;;;;;;;;;;;;;;25.43;59.04;101580.53;5034374;28;19925;-71
2023/05/21 11:11:51;;;;;;;;;;;;;;;25.97;60.82;101567.97;5032441;28;19960;-70
2023/05/21 11:14:34;;;;;;;;;;;;;;;26.41;57.61;101574.09;5033942;28;19921;-73
2023/05/21 11:17:01;;;;;;;;;;;;;;;26.45;57.29;101574.50;5035886;28;20286;-70
2023/05/21 11:19:39;;;;;;;;;;;;;;;26.44;55.99;101575.56;5035456;28;19956;-71
2023/05/21 11:22:06;;;;;;;;;;;;;;;26.72;55.11;101569.03;5033220;28;19925;-71
2023/05/21 11:24:31;;;;;;;;;;;;;;;26.71;55.13;101573.72;5037285;28;19917;-70
2023/05/21 11:26:57;;;;;;;;;;;;;;;26.51;54.16;101559.91;5037812;28;20405;-72
2023/05/21 11:29:39;;;;;;;;;;;;;;;27.35;54.55;101574.16;5031550;28;19947;-72
2023/05/21 11:32:04;;;;;;;;;;;;;;;27.60;54.05;101559.72;5036221;28;20003;-71
2023/05/21 11:34:56;;;;;;;;;;;;;;;27.75;52.56;101550.34;5035211;28;20346;-70
2023/05/21 11:37:29;;;;;;;;;;;;;;;28.35;52.43;101552.88;5032698;28;20012;-71
2023/05/21 11:39:55;;;;;;;;;;;;;;;28.47;47.81;101549.41;5032951;28;19924;-70
2023/05/21 11:42:26;;;;;;;;;;;;;;;28.54;48.86;101548.28;5030126;28;20290;-70
2023/05/21 11:44:51;;;;;;;;;;;;;;;29.02;50.39;101552.38;5036108;28;20141;-70
2023/05/21 11:47:17;;;;;;;;;;;;;;;29.59;48.84;101545.06;5035575;28;20513;-70
2023/05/21 11:49:43;;;;;;;;;;;;;;;29.56;47.71;101545.53;5034627;28;19924;-70
2023/05/21 11:52:09;;;;;;;;;;;;;;;29.58;46.70;101548.91;5035087;28;20236;-71
2023/05/21 11:54:42;;;;;;;;;;;;;;;29.76;46.01;101543.38;5036783;28;19950;-69
2023/05/21 11:57:08;;;;;;;;;;;;;;;29.51;45.95;101553.66;5035289;28;19931;-71
2023/05/21 11:59:33;;;;;;;;;;;;;;;29.47;45.74;101536.69;5033596;28;20442;-71
2023/05/21 12:01:59;;;;;;;;;;;;;;;29.89;44.74;101528.50;5032795;28;19920;-71
2023/05/21 12:04:31;;;;;;;;;;;;;;;30.28;43.64;101536.53;5033581;28;20379;-73
2023/05/21 12:06:59;;;;;;;;;;;;;;;30.21;43.89;101533.00;5029946;28;19921;-72
2023/05/21 12:09:24;;;;;;;;;;;;;;;30.61;48.95;101537.13;5031030;28;19920;-73
2023/05/21 12:11:50;;;;;;;;;;;;;;;30.54;43.62;101526.13;5035720;28;19935;-71
2023/05/21 12:14:15;;;;;;;;;;;;;;;30.93;42.54;101532.16;5034329;28;19924;-74
2023/05/21 12:16:40;;;;;;;;;;;;;;;30.13;45.76;101527.81;5038338;28;20496;-75
2023/05/21 12:19:06;;;;;;;;;;;;;;;30.07;43.33;101522.13;5034081;28;20314;-73
2023/05/21 12:21:31;;;;;;;;;;;;;;;29.83;43.87;101518.38;5018009;28;20371;-71
2023/05/21 12:23:56;;;;;;;;;;;;;;;30.22;45.41;101512.56;5029454;28;20404;-72
2023/05/21 12:26:24;;;;;;;;;;;;;;;30.18;44.56;101520.50;5032060;28;19987;-73